Time;durP1;ratioP1;P1;durP2;ratioP2;P2;SDS_P1;SDS_P2;PMS_P1;PMS_P2;Temp;Humidity;BMP_temperature;BMP_pressure;BME280_temperature;BME280_humidity;BME280_pressure;Samples;Min_cycle;Max_cycle;Signal;HPM_P1;HPM_P2
2022/12/05 00:00:30;;;;;;;3.08;2.63;;;;;;;4.93;89.32;102636.38;4955794;28;20039;-81
2022/12/05 00:02:55;;;;;;;3.58;3.03;;;;;;;5.03;88.90;102648.41;4939656;28;20058;-81
2022/12/05 00:05:21;;;;;;;4.93;3.35;;;;;;;4.98;88.86;102639.78;4939776;28;20488;-80
2022/12/05 00:07:46;;;;;;;6.47;3.83;;;;;;;4.90;88.72;102626.91;4939695;28;20469;-81
2022/12/05 00:10:12;;;;;;;4.95;3.25;;;;;;;5.01;88.76;102632.13;4940052;28;20042;-82
2022/12/05 00:12:37;;;;;;;5.35;4.07;;;;;;;4.95;89.02;102640.66;4939418;28;20026;-81
2022/12/05 00:15:03;;;;;;;4.05;2.67;;;;;;;4.95;89.20;102644.91;4923807;28;20034;-81
2022/12/05 00:17:30;;;;;;;4.63;3.35;;;;;;;4.96;88.78;102641.50;4939501;28;20496;-80
2022/12/05 00:19:56;;;;;;;7.95;4.07;;;;;;;5.04;88.65;102642.41;4939481;28;20118;-80
2022/12/05 00:22:21;;;;;;;4.43;2.95;;;;;;;4.99;88.54;102626.13;4923498;28;20035;-81
2022/12/05 00:24:47;;;;;;;8.15;4.28;;;;;;;4.92;88.30;102632.06;4923579;28;20019;-81
2022/12/05 00:27:12;;;;;;;6.57;4.18;;;;;;;4.95;88.55;102645.78;4955285;28;20031;-81
2022/12/05 00:29:38;;;;;;;5.65;3.67;;;;;;;4.90;89.25;102643.16;4939545;28;20034;-80
2022/12/05 00:32:03;;;;;;;4.93;3.45;;;;;;;4.79;88.79;102626.00;4939126;28;20037;-80
2022/12/05 00:34:29;;;;;;;2.10;1.88;;;;;;;4.98;88.88;102650.91;4939145;28;20555;-81
2022/12/05 00:36:54;;;;;;;5.90;4.03;;;;;;;4.94;88.91;102638.06;4938964;28;20047;-81
2022/12/05 00:39:20;;;;;;;9.38;5.45;;;;;;;4.89;88.59;102635.47;4972291;28;20031;-81
2022/12/05 00:41:45;;;;;;;5.60;3.25;;;;;;;4.76;89.07;102624.28;4972368;28;20038;-81
2022/12/05 00:44:12;;;;;;;4.78;3.35;;;;;;;4.93;89.45;102656.88;4939069;28;20031;-80
2022/12/05 00:46:38;;;;;;;4.38;3.42;;;;;;;4.82;89.21;102629.47;4939136;28;20145;-81
2022/12/05 00:49:04;;;;;;;4.45;4.05;;;;;;;5.00;88.81;102656.06;4938899;28;20559;-82
2022/12/05 00:51:32;;;;;;;6.72;3.25;;;;;;;4.85;88.96;102639.72;4938757;28;20026;-81
2022/12/05 00:53:59;;;;;;;10.40;4.07;;;;;;;4.99;88.98;102656.91;4939115;28;20098;-81
2022/12/05 00:56:25;;;;;;;6.30;4.47;;;;;;;4.89;89.00;102641.44;4937645;28;20031;-81
2022/12/05 00:58:52;;;;;;;5.75;3.95;;;;;;;5.04;88.66;102655.25;4938907;28;20488;-80
2022/12/05 01:01:23;;;;;;;3.90;3.22;;;;;;;4.86;88.78;102631.19;4922939;28;20118;-81
2022/12/05 01:03:51;;;;;;;5.32;3.13;;;;;;;4.90;88.61;102627.78;4923426;28;20531;-81
2022/12/05 01:06:16;;;;;;;3.97;2.13;;;;;;;4.98;88.02;102647.50;4939025;28;20117;-81
2022/12/05 01:08:42;;;;;;;4.68;3.78;;;;;;;4.90;88.74;102643.16;4922744;28;20030;-80
2022/12/05 01:11:08;;;;;;;8.63;3.13;;;;;;;4.88;88.95;102644.88;4955078;28;20090;-81
2022/12/05 01:13:33;;;;;;;4.70;3.72;;;;;;;4.89;89.18;102638.88;4938914;28;20022;-81
2022/12/05 01:15:59;;;;;;;3.25;2.28;;;;;;;4.81;88.99;102637.97;4938510;28;20031;-81
2022/12/05 01:18:25;;;;;;;6.00;2.92;;;;;;;4.84;89.37;102637.16;4922829;28;20432;-81
2022/12/05 01:20:51;;;;;;;5.15;3.80;;;;;;;4.81;89.29;102625.16;4938641;28;20062;-81
2022/12/05 01:23:18;;;;;;;4.15;2.88;;;;;;;4.85;89.48;102623.47;4922375;28;20055;-80
2022/12/05 01:25:45;;;;;;;4.00;3.25;;;;;;;4.86;88.96;102644.00;4954749;28;20037;-81
2022/12/05 01:28:10;;;;;;;7.55;2.78;;;;;;;4.86;88.84;102626.06;4938558;28;20031;-80
2022/12/05 01:30:38;;;;;;;3.95;2.42;;;;;;;4.97;89.25;102627.81;4938444;28;20031;-81
2022/12/05 01:33:03;;;;;;;3.83;2.47;;;;;;;4.87;88.73;102621.78;4938645;28;20093;-80
2022/12/05 01:35:33;;;;;;;5.00;1.80;;;;;;;4.88;88.96;102624.34;4938375;28;20035;-80
2022/12/05 01:37:59;;;;;;;5.00;2.60;;;;;;;4.86;89.35;102609.81;4938204;28;20477;-80
2022/12/05 01:40:24;;;;;;;5.47;3.20;;;;;;;4.93;88.80;102618.41;4922733;28;20031;-80
2022/12/05 01:42:50;;;;;;;5.53;2.22;;;;;;;4.87;89.05;102617.50;4938278;28;20078;-81
2022/12/05 01:45:18;;;;;;;5.20;3.42;;;;;;;4.86;89.21;102614.94;4938858;28;20031;-81
2022/12/05 01:47:43;;;;;;;5.35;2.03;;;;;;;4.74;88.90;102597.78;4938593;28;20027;-82
2022/12/05 01:50:09;;;;;;;3.13;2.05;;;;;;;4.92;89.03;102614.09;4938593;28;20026;-81
2022/12/05 01:52:34;;;;;;;4.13;3.65;;;;;;;4.88;88.88;102619.22;4938284;28;20035;-81
2022/12/05 01:55:05;;;;;;;14.65;3.88;;;;;;;4.77;88.95;102597.78;4922372;28;20027;-81
2022/12/05 01:57:30;;;;;;;3.28;2.47;;;;;;;4.74;88.92;102584.94;4954392;28;20027;-80
2022/12/05 02:00:00;;;;;;;6.65;2.85;;;;;;;4.86;88.82;102604.69;4922576;28;20027;-80
2022/12/05 02:02:27;;;;;;;4.57;2.67;;;;;;;4.96;88.99;102620.97;4954191;28;20071;-80
2022/12/05 02:05:04;;;;;;;3.67;2.47;;;;;;;4.90;89.04;102601.28;4922634;28;20035;-81
2022/12/05 02:07:29;;;;;;;10.30;3.63;;;;;;;4.85;89.11;102608.09;4941505;28;20114;-81
2022/12/05 02:09:55;;;;;;;4.55;2.92;;;;;;;4.82;89.30;102598.69;4942060;28;20428;-81
2022/12/05 02:12:20;;;;;;;2.67;2.35;;;;;;;4.87;89.06;102607.25;4957707;28;20031;-81
2022/12/05 02:14:59;;;;;;;9.15;3.45;;;;;;;4.93;89.23;102613.28;4941542;28;20413;-81
2022/12/05 02:17:28;;;;;;;5.97;3.17;;;;;;;4.94;89.14;102612.44;4942674;28;20588;-81
2022/12/05 02:19:53;;;;;;;5.18;4.07;;;;;;;4.99;88.74;102615.84;4957453;28;20043;-81
2022/12/05 02:22:26;;;;;;;3.55;2.25;;;;;;;4.93;89.30;102610.72;4957138;28;20037;-80
2022/12/05 02:24:51;;;;;;;;;;;;;;;4.94;89.26;102613.28;4958017;28;20599;-81
2022/12/05 02:27:44;;;;;;;10.30;4.57;;;;;;;4.88;89.68;102608.97;4975039;28;19914;-81
2022/12/05 02:30:13;;;;;;;2.58;2.38;;;;;;;4.95;89.58;102609.00;4974521;28;20408;-81
2022/12/05 02:32:50;;;;;;;3.47;3.13;;;;;;;4.88;89.90;102600.41;4957486;28;20031;-81
2022/12/05 02:35:34;;;;;;;2.95;2.38;;;;;;;4.87;90.11;102608.97;4974633;28;20027;-81
2022/12/05 02:38:06;;;;;;;6.47;2.47;;;;;;;4.79;90.72;102608.91;4973943;28;20031;-80
2022/12/05 02:40:40;;;;;;;6.85;2.78;;;;;;;4.76;90.71;102608.88;4957037;28;20031;-81
2022/12/05 02:43:19;;;;;;;4.65;2.72;;;;;;;4.79;90.65;102606.34;4957097;28;20101;-82
2022/12/05 02:45:47;;;;;;;5.22;3.22;;;;;;;4.79;91.12;102603.75;4956989;28;20620;-81
2022/12/05 02:48:13;;;;;;;5.57;3.13;;;;;;;4.79;90.42;102588.38;4941297;28;20045;-81
2022/12/05 02:50:38;;;;;;;4.35;2.38;;;;;;;4.95;89.76;102607.31;4956433;28;20469;-81
2022/12/05 02:53:07;;;;;;;4.57;3.13;;;;;;;4.85;89.49;102585.88;4925240;28;20031;-81
2022/12/05 02:55:32;;;;;;;3.25;2.47;;;;;;;4.83;90.38;102600.41;4941075;28;20031;-81
2022/12/05 02:58:14;;;;;;;2.80;2.47;;;;;;;4.87;90.42;102591.84;4925007;28;20030;-81
2022/12/05 03:00:42;;;;;;;9.02;4.25;;;;;;;4.84;89.95;102583.31;4925434;28;20030;-81
2022/12/05 03:03:18;;;;;;;4.88;2.17;;;;;;;4.86;89.77;102592.72;4925049;28;20126;-81
2022/12/05 03:06:02;;;;;;;5.10;2.60;;;;;;;4.91;89.43;102592.72;4925228;28;20400;-80
2022/12/05 03:08:35;;;;;;;2.35;1.52;;;;;;;4.86;89.25;102579.88;4956731;28;20031;-81
2022/12/05 03:11:00;;;;;;;;;;;;;;;4.92;89.53;102598.72;4925484;28;20452;-81
2022/12/05 03:13:27;;;;;;;3.85;2.75;;;;;;;4.74;89.88;102577.25;4972710;28;19914;-80
2022/12/05 03:15:59;;;;;;;6.03;3.30;;;;;;;4.81;89.92;102583.25;4924719;28;20058;-80
2022/12/05 03:18:35;;;;;;;4.75;2.55;;;;;;;4.81;90.13;102591.81;4924659;28;20061;-80
2022/12/05 03:21:12;;;;;;;2.92;2.53;;;;;;;4.61;90.81;102565.19;4940704;28;20031;-81
2022/12/05 03:23:41;;;;;;;3.40;3.00;;;;;;;4.58;90.58;102558.34;4973425;28;20165;-81
2022/12/05 03:26:13;;;;;;;4.72;3.17;;;;;;;4.88;90.01;102588.44;4924862;28;20038;-81
2022/12/05 03:29:06;;;;;;;2.90;2.42;;;;;;;4.81;90.13;102584.13;4940833;28;20030;-81
2022/12/05 03:31:38;;;;;;;4.03;2.20;;;;;;;4.60;90.00;102543.81;4949010;28;20047;-81
2022/12/05 03:34:04;;;;;;;5.15;2.53;;;;;;;4.79;90.47;102572.13;4940715;28;20042;-81
2022/12/05 03:36:40;;;;;;;4.75;2.53;;;;;;;4.66;89.93;102553.28;4940323;28;20031;-81
2022/12/05 03:39:05;;;;;;;3.17;2.65;;;;;;;4.92;90.10;102594.47;4924768;28;20042;-81
2022/12/05 03:41:40;;;;;;;2.92;1.88;;;;;;;4.83;89.41;102584.16;4973216;28;20031;-81
2022/12/05 03:44:20;;;;;;;8.88;4.25;;;;;;;4.86;89.92;102602.13;4940344;28;20022;-81
2022/12/05 03:46:50;;;;;;;7.10;3.15;;;;;;;4.67;90.11;102565.25;4956260;28;20052;-81
2022/12/05 03:49:44;;;;;;;5.63;3.33;;;;;;;4.78;89.72;102571.28;4924268;28;20023;-81
2022/12/05 03:52:15;;;;;;;5.25;2.53;;;;;;;4.83;90.46;102590.13;4941825;28;20041;-81
2022/12/05 03:54:44;;;;;;;3.40;1.52;;;;;;;4.81;90.56;102591.81;4940299;28;20038;-80
2022/12/05 03:57:20;;;;;;;8.40;2.60;;;;;;;4.82;90.59;102600.38;4940196;28;20031;-81
2022/12/05 04:00:07;;;;;;;5.60;3.17;;;;;;;4.73;90.23;102578.09;4955634;28;20031;-81
2022/12/05 04:02:44;;;;;;;2.53;1.92;;;;;;;4.92;90.28;102603.84;4941840;28;20030;-81
2022/12/05 04:05:24;;;;;;;1.95;1.52;;;;;;;4.96;89.34;102579.94;4955727;28;20026;-82
2022/12/05 04:08:02;;;;;;;3.90;3.22;;;;;;;4.95;88.55;102583.34;4939627;28;20519;-82
2022/12/05 04:10:29;;;;;;;2.28;1.30;;;;;;;5.06;88.28;102586.84;4940264;28;20030;-82
2022/12/05 04:12:55;;;;;;;5.28;3.85;;;;;;;5.10;89.02;102593.69;4939648;28;20038;-82
2022/12/05 04:15:25;;;;;;;3.83;2.25;;;;;;;5.21;88.67;102588.59;4939705;28;20022;-82
2022/12/05 04:17:52;;;;;;;1.88;1.73;;;;;;;5.14;87.83;102564.66;4939103;28;20654;-82
2022/12/05 04:23:13;;;;;;;3.13;2.50;;;;;;;5.46;87.09;102595.56;4944993;28;20038;-83
2022/12/05 04:25:57;;;;;;;2.70;2.40;;;;;;;5.39;86.49;102591.25;4939581;28;20035;-82
2022/12/05 04:28:34;;;;;;;2.95;2.17;;;;;;;5.44;86.28;102600.69;4940532;28;20035;-82
2022/12/05 04:31:14;;;;;;;4.22;2.97;;;;;;;5.35;86.82;102603.22;4954356;28;20053;-81
2022/12/05 04:33:49;;;;;;;4.28;2.42;;;;;;;5.40;86.93;102606.66;4954785;28;20039;-82
2022/12/05 04:36:18;;;;;;;3.47;2.40;;;;;;;5.31;87.06;102577.53;4954981;28;20035;-82
2022/12/05 04:38:59;;;;;;;4.18;3.25;;;;;;;5.23;86.87;102579.22;4954954;28;20031;-81
2022/12/05 04:41:41;;;;;;;7.57;4.07;;;;;;;5.25;86.82;102591.22;4939557;28;20080;-83
2022/12/05 04:44:10;;;;;;;4.60;3.72;;;;;;;4.86;87.91;102559.38;4925053;28;20027;-82
2022/12/05 04:46:36;;;;;;;6.97;3.65;;;;;;;5.02;88.27;102596.22;4939034;28;20043;-82
2022/12/05 04:49:01;;;;;;;2.13;1.90;;;;;;;4.98;88.48;102586.78;4939291;28;20401;-82
2022/12/05 04:51:29;;;;;;;6.90;4.70;;;;;;;5.01;88.63;102598.75;4939059;28;20481;-82
2022/12/05 04:54:02;;;;;;;4.47;3.75;;;;;;;4.97;88.73;102595.34;4939169;28;20031;-81
2022/12/05 04:56:29;;;;;;;4.57;3.30;;;;;;;5.02;88.97;102603.06;4938629;28;20026;-82
2022/12/05 04:58:54;;;;;;;6.07;3.08;;;;;;;4.97;88.63;102591.91;4939406;28;20034;-81
2022/12/05 05:01:49;;;;;;;8.18;5.53;;;;;;;4.94;89.32;102607.28;4938565;28;20035;-82
2022/12/05 05:04:25;;;;;;;9.02;5.95;;;;;;;4.97;89.34;102602.19;4934084;29;20031;-82
2022/12/05 05:06:50;;;;;;;9.63;6.20;;;;;;;5.01;89.46;102601.31;4935380;29;20023;-82
2022/12/05 05:09:16;;;;;;;6.00;4.50;;;;;;;4.89;89.51;102590.16;4936403;28;20500;-82
2022/12/05 05:11:41;;;;;;;5.15;3.83;;;;;;;5.08;89.14;102613.34;4954878;28;20117;-81
2022/12/05 05:14:07;;;;;;;9.70;2.03;;;;;;;4.92;88.90;102601.28;4938894;28;20035;-82
2022/12/05 05:16:38;;;;;;;5.95;4.03;;;;;;;4.99;88.99;102618.44;4938242;28;20976;-81
2022/12/05 05:19:04;;;;;;;6.75;2.92;;;;;;;4.99;89.39;102631.25;4946779;28;20030;-80
2022/12/05 05:21:31;;;;;;;3.67;3.17;;;;;;;4.97;89.56;102627.81;4943832;29;20031;-81
2022/12/05 05:23:57;;;;;;;5.57;3.80;;;;;;;5.05;89.25;102626.16;4951004;29;20489;-82
2022/12/05 05:26:22;;;;;;;4.97;2.60;;;;;;;4.98;88.92;102624.41;4934907;29;20065;-81
2022/12/05 05:28:48;;;;;;;6.63;2.67;;;;;;;5.04;88.88;102624.47;4964078;28;20137;-92
2022/12/05 05:31:14;;;;;;;2.72;2.28;;;;;;;4.88;89.55;102614.09;4940719;28;20026;-87
2022/12/05 05:33:39;;;;;;;10.57;6.15;;;;;;;4.83;89.80;102604.66;4973876;28;20035;-83
2022/12/05 05:36:12;;;;;;;3.88;3.40;;;;;;;4.77;89.48;102600.34;4957652;28;20480;-86
2022/12/05 05:38:37;;;;;;;;;;;;;;;4.89;90.24;102631.19;4951846;28;20034;-87
2022/12/05 05:41:03;;;;;;;4.13;2.38;;;;;;;4.79;90.12;102611.47;4955168;28;19914;-88
2022/12/05 05:43:29;;;;;;;4.30;3.20;;;;;;;4.95;90.21;102629.53;4938207;29;20187;-84
2022/12/05 05:45:54;;;;;;;6.47;3.38;;;;;;;4.72;89.89;102596.91;4938368;29;20035;-90
2022/12/05 05:48:20;;;;;;;10.27;5.82;;;;;;;4.82;89.83;102614.06;4938613;29;20035;-86
2022/12/05 05:50:45;;;;;;;7.68;3.42;;;;;;;4.90;90.06;102638.03;4922597;29;20035;-88
2022/12/05 05:53:11;;;;;;;6.60;3.30;;;;;;;4.83;90.24;102626.03;4954289;28;20035;-92
2022/12/05 05:55:40;;;;;;;10.45;5.55;;;;;;;4.89;90.17;102638.88;4958175;28;20023;-83
2022/12/05 05:58:05;;;;;;;10.85;6.72;;;;;;;4.94;90.19;102630.38;4962981;28;20038;-92
2022/12/05 06:00:31;;;;;;;3.80;3.22;;;;;;;5.00;90.21;102643.22;4926536;28;20035;-87
2022/12/05 06:02:56;;;;;;;3.90;2.58;;;;;;;5.07;89.63;102637.28;4949561;28;20039;-87
2022/12/05 06:05:22;;;;;;;5.38;4.15;;;;;;;5.03;89.10;102643.25;4947197;28;20027;-87
2022/12/05 06:07:47;;;;;;;7.78;4.68;;;;;;;4.90;89.00;102627.78;4958091;28;20047;-93
2022/12/05 06:10:13;;;;;;;9.43;4.18;;;;;;;5.04;89.36;102644.97;4975423;28;20443;-91
2022/12/05 06:12:38;;;;;;;17.33;7.43;;;;;;;4.94;89.30;102633.81;4961266;28;20542;-88
2022/12/05 06:15:04;;;;;;;4.00;3.35;;;;;;;5.06;89.36;102638.16;4941075;28;20038;-85
2022/12/05 06:17:30;;;;;;;3.08;2.78;;;;;;;5.00;88.78;102635.53;4925066;28;20050;-83
2022/12/05 06:19:56;;;;;;;6.63;3.53;;;;;;;4.86;88.86;102602.13;4940993;28;20031;-85
2022/12/05 06:22:28;;;;;;;4.53;3.80;;;;;;;4.96;89.13;102621.84;4959817;28;20598;-95
2022/12/05 06:24:54;;;;;;;8.05;4.82;;;;;;;5.04;88.97;102642.41;4943656;29;20058;-91
2022/12/05 06:27:19;;;;;;;6.82;3.50;;;;;;;5.06;89.04;102643.28;4940148;28;20069;-90
2022/12/05 06:29:45;;;;;;;3.35;2.47;;;;;;;4.98;88.96;102637.22;4942478;28;20035;-85
2022/12/05 06:32:10;;;;;;;3.17;2.60;;;;;;;4.79;89.24;102606.34;4954815;28;20097;-84
2022/12/05 06:34:36;;;;;;;4.70;4.03;;;;;;;5.01;89.10;102650.06;4939131;28;20501;-81
2022/12/05 06:37:01;;;;;;;4.50;2.88;;;;;;;5.01;88.92;102634.69;4924650;28;20030;-87
2022/12/05 06:39:27;;;;;;;8.90;6.45;;;;;;;4.99;88.61;102644.06;4956014;28;20026;-80
2022/12/05 06:41:52;;;;;;;9.00;6.60;;;;;;;4.89;89.70;102635.47;4956626;28;20026;-81
2022/12/05 06:44:19;;;;;;;11.55;7.20;;;;;;;5.02;89.21;102639.84;4938862;28;20027;-88
2022/12/05 06:46:44;;;;;;;5.38;3.85;;;;;;;5.05;89.61;102646.69;4930240;28;20030;-85
2022/12/05 06:49:10;;;;;;;9.18;4.80;;;;;;;5.02;89.05;102651.81;4950157;28;20027;-84
2022/12/05 06:51:35;;;;;;;31.63;16.98;;;;;;;4.70;89.57;102596.00;4945756;29;20417;-82
2022/12/05 06:54:01;;;;;;;9.73;5.45;;;;;;;5.06;89.76;102648.41;4954802;28;20034;-92
2022/12/05 06:56:27;;;;;;;3.55;2.97;;;;;;;5.06;88.93;102648.41;4953661;28;20034;-83
2022/12/05 06:58:53;;;;;;;5.70;2.70;;;;;;;5.13;90.31;102634.78;4951923;28;20062;-87
2022/12/05 07:01:37;;;;;;;3.10;2.63;;;;;;;5.24;88.91;102651.09;4973679;28;20053;-89
2022/12/05 07:04:23;;;;;;;4.50;3.80;;;;;;;5.43;89.42;102665.72;4935867;28;20046;-89
2022/12/05 07:06:49;;;;;;;4.30;3.63;;;;;;;5.37;87.32;102659.69;4958460;28;20539;-87
2022/12/05 07:09:15;;;;;;;6.45;3.50;;;;;;;5.27;87.35;102658.78;4942580;28;20031;-82
2022/12/05 07:11:40;;;;;;;4.35;2.92;;;;;;;5.25;87.79;102652.78;4924210;29;20027;-86
2022/12/05 07:14:08;;;;;;;3.88;3.28;;;;;;;5.26;87.63;102653.66;4947615;28;20026;-85
2022/12/05 07:16:34;;;;;;;2.25;2.05;;;;;;;5.24;87.79;102643.38;4956025;28;20055;-86
2022/12/05 07:18:59;;;;;;;7.47;2.78;;;;;;;4.97;88.14;102612.44;4953344;28;20049;-83
2022/12/05 07:21:25;;;;;;;5.75;3.10;;;;;;;5.17;88.23;102659.59;4955442;28;20522;-92
2022/12/05 07:23:50;;;;;;;3.95;2.58;;;;;;;5.09;88.41;102649.28;4929411;28;20038;-91
2022/12/05 07:26:18;;;;;;;4.45;3.00;;;;;;;5.01;88.21;102650.06;4915867;28;20031;-84
2022/12/05 07:28:44;;;;;;;3.58;2.33;;;;;;;5.14;88.94;102678.41;4947770;28;20027;-92
2022/12/05 07:31:12;;;;;;;7.32;3.80;;;;;;;5.11;88.86;102667.22;4922227;28;20390;-87
2022/12/05 07:33:37;;;;;;;4.68;4.15;;;;;;;5.11;88.59;102672.38;4942544;28;20027;-91
2022/12/05 07:36:13;;;;;;;6.93;4.65;;;;;;;5.06;88.83;102663.78;4930506;28;20077;-88
2022/12/05 07:38:39;;;;;;;9.45;4.85;;;;;;;5.18;88.70;102684.41;4948495;29;20465;-80
2022/12/05 07:41:18;;;;;;;4.93;3.95;;;;;;;5.25;88.49;102686.16;4968349;28;20595;-94
2022/12/05 07:43:44;;;;;;;5.40;3.00;;;;;;;5.27;87.83;102679.31;4933400;28;20706;-90
2022/12/05 07:46:12;;;;;;;4.00;2.83;;;;;;;5.14;88.21;102680.09;4935002;28;20037;-94
2022/12/05 07:48:38;;;;;;;7.03;4.38;;;;;;;5.21;88.51;102681.88;4947239;28;20034;-92
2022/12/05 07:51:04;;;;;;;5.43;3.97;;;;;;;5.21;89.14;102689.56;4904165;28;20039;-90
2022/12/05 07:53:30;;;;;;;5.63;4.30;;;;;;;5.34;88.22;102683.66;4930866;28;20027;-85
2022/12/05 07:55:58;;;;;;;12.98;6.35;;;;;;;5.31;87.29;102686.19;4951743;28;20023;-87
2022/12/05 07:58:24;;;;;;;5.43;3.15;;;;;;;5.31;88.07;102681.06;4945236;29;20039;-92
2022/12/05 08:00:49;;;;;;;3.92;3.00;;;;;;;5.24;88.07;102681.88;4934519;28;20085;-88
2022/12/05 08:03:15;;;;;;;10.80;5.10;;;;;;;5.21;87.77;102670.72;4920549;28;20038;-88
2022/12/05 08:05:40;;;;;;;13.38;10.05;;;;;;;5.33;87.78;102694.75;4924615;28;20481;-84
2022/12/05 08:08:06;;;;;;;3.28;2.75;;;;;;;5.34;87.78;102693.91;4929671;28;20038;-85
2022/12/05 08:10:32;;;;;;;6.05;3.72;;;;;;;5.11;87.94;102641.56;4971804;28;20034;-83
2022/12/05 08:12:58;;;;;;;5.13;3.42;;;;;;;5.27;87.26;102670.75;4966527;28;20027;-92
2022/12/05 08:15:23;;;;;;;4.05;2.85;;;;;;;5.36;87.58;102691.34;4908082;28;20038;-84
2022/12/05 08:17:49;;;;;;;5.22;3.10;;;;;;;5.15;88.17;102684.38;4924253;29;20059;-94
2022/12/05 08:20:14;;;;;;;5.47;3.25;;;;;;;5.19;88.97;102688.66;4951846;28;20023;-94
2022/12/05 08:22:40;;;;;;;2.05;1.90;;;;;;;5.27;88.67;102686.16;4954357;28;20523;-87
2022/12/05 08:25:06;;;;;;;8.90;2.38;;;;;;;5.23;88.55;102687.00;4924809;28;20042;-89
2022/12/05 08:27:31;;;;;;;3.47;2.88;;;;;;;5.24;88.32;102688.72;4930332;28;20030;-90
2022/12/05 08:29:57;;;;;;;6.03;3.22;;;;;;;5.19;87.51;102671.56;4940148;28;20054;-87
2022/12/05 08:32:22;;;;;;;4.40;2.92;;;;;;;5.23;87.93;102675.03;4951199;29;20429;-87
2022/12/05 08:34:48;;;;;;;4.55;2.65;;;;;;;5.24;88.21;102673.31;4952228;28;20098;-86
2022/12/05 08:37:13;;;;;;;4.65;2.55;;;;;;;5.29;87.81;102681.88;4950573;28;20062;-87
2022/12/05 08:39:38;;;;;;;5.80;3.53;;;;;;;5.24;87.73;102673.31;4952928;28;20029;-92
2022/12/05 08:42:04;;;;;;;5.28;2.47;;;;;;;5.22;88.12;102678.44;4941645;28;20482;-88
2022/12/05 08:44:30;;;;;;;5.15;2.72;;;;;;;5.28;87.73;102681.03;4927950;29;20473;-87
2022/12/05 08:46:55;;;;;;;3.10;2.80;;;;;;;5.15;87.92;102658.72;4941918;28;20034;-90
2022/12/05 08:49:21;;;;;;;5.32;2.33;;;;;;;5.28;89.27;102659.66;4938809;28;20123;-83
2022/12/05 08:51:46;;;;;;;4.78;2.47;;;;;;;5.46;87.76;102677.72;4919208;28;20054;-94
2022/12/05 08:54:12;;;;;;;5.15;3.65;;;;;;;5.36;87.91;102665.69;4922835;28;20154;-92
2022/12/05 08:56:37;;;;;;;4.28;2.92;;;;;;;5.47;87.51;102672.56;4950260;29;20039;-88
2022/12/05 08:59:04;;;;;;;3.97;3.22;;;;;;;5.55;87.22;102674.34;4930246;29;20054;-89
2022/12/05 09:01:30;;;;;;;6.93;3.85;;;;;;;5.52;87.33;102653.78;4952186;28;20120;-93
2022/12/05 09:03:59;;;;;;;6.10;3.40;;;;;;;5.66;86.93;102662.41;4922721;29;20413;-93
2022/12/05 09:06:25;;;;;;;4.10;2.25;;;;;;;5.70;86.10;102662.44;4935544;28;20026;-89
2022/12/05 09:08:58;;;;;;;2.92;2.42;;;;;;;5.69;86.09;102652.97;4976226;28;20485;-81
2022/12/05 09:11:25;;;;;;;4.88;3.92;;;;;;;5.78;85.67;102653.88;4951062;28;20030;-84
2022/12/05 09:13:51;;;;;;;4.82;3.92;;;;;;;5.82;85.92;102673.59;4923550;28;20039;-85
2022/12/05 09:16:22;;;;;;;3.38;2.53;;;;;;;5.75;86.18;102665.84;4940201;28;20065;-91
2022/12/05 09:18:48;;;;;;;4.47;3.38;;;;;;;5.66;86.14;102663.25;4938486;28;20036;-85
2022/12/05 09:21:15;;;;;;;7.72;4.07;;;;;;;5.73;85.85;102669.28;4954144;28;20023;-88
2022/12/05 09:23:41;;;;;;;8.50;3.88;;;;;;;5.71;86.21;102655.56;4969016;28;20038;-88
2022/12/05 09:26:09;;;;;;;9.10;5.47;;;;;;;5.68;85.95;102651.25;4937005;28;20035;-79
2022/12/05 09:28:35;;;;;;;3.10;2.53;;;;;;;5.66;85.84;102652.97;4934776;28;20031;-83
2022/12/05 09:31:03;;;;;;;6.47;3.13;;;;;;;5.60;85.95;102644.38;4964263;28;20027;-85
2022/12/05 09:33:29;;;;;;;6.38;4.50;;;;;;;5.54;86.37;102631.53;4955240;28;20557;-86
2022/12/05 09:35:54;;;;;;;2.83;2.60;;;;;;;5.63;86.69;102646.97;4938148;28;20540;-81
2022/12/05 09:38:20;;;;;;;4.63;3.08;;;;;;;5.67;86.59;102657.25;4970167;28;20031;-86
2022/12/05 09:40:45;;;;;;;16.58;3.70;;;;;;;5.56;86.64;102635.81;4944405;28;20089;-84
2022/12/05 09:43:46;;;;;;;4.95;3.75;;;;;;;5.76;86.26;102656.44;4950843;28;20030;-88
2022/12/05 09:46:16;;;;;;;4.70;3.05;;;;;;;5.60;86.08;102636.69;4919768;28;20039;-91
2022/12/05 09:48:43;;;;;;;6.97;2.80;;;;;;;5.68;86.34;102646.13;4956494;28;20069;-79
2022/12/05 09:51:09;;;;;;;2.67;1.83;;;;;;;5.70;85.85;102653.84;4924795;28;20052;-92
2022/12/05 09:53:36;;;;;;;7.70;4.10;;;;;;;5.61;86.42;102634.16;4953542;28;20149;-89
2022/12/05 09:56:08;;;;;;;7.20;3.80;;;;;;;5.74;86.25;102637.59;4938465;28;20633;-87
2022/12/05 09:58:45;;;;;;;3.58;2.85;;;;;;;5.68;85.89;102609.31;4971054;28;20069;-89
2022/12/05 10:01:22;;;;;;;4.35;2.78;;;;;;;5.78;84.79;102639.31;4949725;28;20027;-85
2022/12/05 10:03:57;;;;;;;8.13;3.88;;;;;;;5.74;85.47;102629.91;4975481;28;20426;-86
2022/12/05 10:06:29;;;;;;;2.47;2.03;;;;;;;5.64;85.63;102612.75;4961513;28;20556;-86
2022/12/05 10:09:23;;;;;;;2.40;2.05;;;;;;;5.74;85.61;102629.91;4944776;29;20035;-87
2022/12/05 10:11:56;;;;;;;3.05;1.85;;;;;;;5.71;85.71;102620.47;4954082;28;20249;-80
2022/12/05 10:14:44;;;;;;;12.63;3.50;;;;;;;5.81;85.34;102620.50;4958404;28;20038;-81
2022/12/05 10:17:17;;;;;;;7.50;2.45;;;;;;;5.61;85.81;102616.16;4943245;28;20134;-92
2022/12/05 10:19:44;;;;;;;1.90;1.73;;;;;;;5.43;86.65;102578.44;4953471;28;20027;-85
2022/12/05 10:22:29;;;;;;;2.88;2.17;;;;;;;5.55;86.23;102599.88;4946963;28;20031;-87
2022/12/05 10:24:58;;;;;;;3.70;2.53;;;;;;;5.66;85.86;102621.31;4954494;28;20114;-85
2022/12/05 10:27:30;;;;;;;4.75;3.13;;;;;;;5.48;86.28;102592.13;4934610;28;20027;-83
2022/12/05 10:30:01;;;;;;;5.57;3.80;;;;;;;5.74;85.89;102630.75;4940518;28;20054;-85
2022/12/05 10:32:54;;;;;;;2.20;2.00;;;;;;;5.58;86.12;102628.13;4951890;28;20035;-82
2022/12/05 10:35:24;;;;;;;6.85;3.92;;;;;;;5.50;86.61;102604.97;4941625;28;20460;-84
2022/12/05 10:38:13;;;;;;;4.05;2.88;;;;;;;5.63;86.69;102621.31;4925543;28;20037;-82
2022/12/05 10:40:40;;;;;;;8.25;4.88;;;;;;;5.74;86.45;102622.19;4948647;28;20027;-86
2022/12/05 10:43:07;;;;;;;4.38;2.75;;;;;;;5.60;86.74;102616.13;4961545;28;20034;-93
2022/12/05 10:45:34;;;;;;;4.13;3.13;;;;;;;5.60;86.53;102609.28;4938679;28;20088;-88
2022/12/05 10:48:00;;;;;;;5.32;3.53;;;;;;;5.66;86.83;102611.03;4912741;28;20050;-84
2022/12/05 10:50:31;;;;;;;16.38;3.58;;;;;;;5.65;86.61;102606.75;4942558;29;20028;-81
2022/12/05 10:52:57;;;;;;;3.92;2.95;;;;;;;5.57;87.32;102590.47;4923912;28;20137;-80
2022/12/05 10:55:24;;;;;;;8.98;5.68;;;;;;;5.61;86.49;102597.34;4949857;28;20022;-80
2022/12/05 10:57:51;;;;;;;14.73;5.68;;;;;;;5.75;88.05;102609.34;4939790;28;20038;-85
2022/12/05 11:00:20;;;;;;;4.95;3.83;;;;;;;5.88;87.23;102612.78;4935816;29;20027;-82
2022/12/05 11:02:46;;;;;;;3.65;3.05;;;;;;;5.45;86.84;102556.19;4932329;28;20041;-80
2022/12/05 11:05:11;;;;;;;3.80;2.33;;;;;;;5.81;86.50;102589.69;4965168;28;20035;-87
2022/12/05 11:07:43;;;;;;;7.03;3.08;;;;;;;5.86;86.50;102599.09;4955228;28;20026;-85
2022/12/05 11:10:27;;;;;;;3.60;2.30;;;;;;;5.70;87.41;102587.06;4955523;28;20030;-86
2022/12/05 11:12:54;;;;;;;8.05;3.70;;;;;;;5.80;87.60;102576.00;4949455;28;20081;-84
2022/12/05 11:15:24;;;;;;;3.75;2.25;;;;;;;5.96;87.42;102582.03;4950682;28;20081;-82
2022/12/05 11:17:50;;;;;;;8.43;3.88;;;;;;;6.02;86.41;102580.31;4922205;28;20587;-84
2022/12/05 11:20:18;;;;;;;5.82;3.83;;;;;;;5.91;86.36;102546.06;4938937;29;20035;-85
2022/12/05 11:22:45;;;;;;;4.85;4.05;;;;;;;6.06;86.12;102564.91;4962715;28;20026;-86
2022/12/05 11:25:23;;;;;;;11.27;4.68;;;;;;;5.86;86.07;102537.44;4948468;28;20031;-89
2022/12/05 11:27:48;;;;;;;3.90;3.40;;;;;;;5.91;86.17;102551.19;4943879;28;20042;-80
2022/12/05 11:30:18;;;;;;;9.25;3.38;;;;;;;5.83;86.10;102545.16;4959059;28;20030;-85
2022/12/05 11:32:43;;;;;;;6.05;4.65;;;;;;;5.91;86.55;102556.34;4935716;29;20042;-81
2022/12/05 11:35:11;;;;;;;6.68;5.05;;;;;;;5.97;86.00;102555.47;4947203;28;20030;-87
2022/12/05 11:37:55;;;;;;;5.03;3.42;;;;;;;5.97;86.14;102546.06;4968437;28;20026;-85
2022/12/05 11:40:48;;;;;;;6.88;3.92;;;;;;;5.99;86.52;102544.34;4971579;28;20023;-88
2022/12/05 11:43:23;;;;;;;;;;;;;;;5.96;85.84;102534.06;4977020;28;20038;-82
2022/12/05 11:46:12;;;;;;;3.95;2.70;;;;;;;6.01;88.82;102534.94;4972268;28;20472;-81